Toyo Maru — JI3710 — position and weather

sailwx.info

Track history (hours):
 
Tides and Currents Weather Stations Pressure Air Temp Water Temp Dewpoint Dewpoint Depression Visibility Wind Speed Wind Dir Waves Ship Positions

Toyo Maru

Last reported at 2014-Aug-30 11:33 UTC. Time now 2014-Aug-30 12:28 UTC.
Position N 35°00' E 139°37'.

Length 125 m; draft 6 m.

Type: Cargo ship. MMSI: 431401953.

Date/timePositionNaut miles runAvg speedWind from/ knotsBaromVisibWave heightAir tempDewpointWater temp
2014-Aug-30 11:33N 35°00' E 139°37'24515.3
2014-Aug-29 19:33N 34°05' E 134°48'12115.1
2014-Aug-29 11:33N 34°13' E 132°22'1010.5
2014-Aug-29 10:33N 34°21' E 132°29'0 0.0
2014-Aug-29 09:32N 34°21' E 132°29'0 0.3
2014-Aug-29 08:33N 34°21' E 132°29'2 1.8
2014-Aug-29 07:33N 34°21' E 132°31'0 0.0
2014-Aug-29 06:33N 34°21' E 132°31'0 0.0
2014-Aug-29 04:12N 34°21' E 132°31'610.1
2014-Aug-29 03:33N 34°19' E 132°23'2 1.9
2014-Aug-29 02:31N 34°21' E 132°22'2 2.0
2014-Aug-29 01:34N 34°20' E 132°24'5 4.7
2014-Aug-29 00:33N 34°21' E 132°29'0 0.0
2014-Aug-28 23:33N 34°21' E 132°29'2 1.7
2014-Aug-28 22:33N 34°21' E 132°31'0 0.0
2014-Aug-28 21:29N 34°21' E 132°31'0 0.0
2014-Aug-28 20:29N 34°21' E 132°31'0 0.0
2014-Aug-28 19:29N 34°21' E 132°31'0 0.0
2014-Aug-28 18:29N 34°21' E 132°31'0 0.0
2014-Aug-28 17:32N 34°21' E 132°31'0 0.0
2014-Aug-28 16:29N 34°21' E 132°31'3 2.8
2014-Aug-28 15:33N 34°20' E 132°28'35112.5
2014-Aug-27 11:34N 34°59' E 139°32'1818.0
2014-Aug-27 10:33N 35°13' E 139°46'1413.5
2014-Aug-27 09:33N 35°26' E 139°46'1817.9
2014-Aug-27 08:34N 35°35' E 140°05'1 0.9
2014-Aug-27 07:33N 35°36' E 140°06'0 0.0
2014-Aug-27 06:24N 35°36' E 140°06'1 1.5
2014-Aug-27 05:32N 35°37' E 140°05'0 0.0
2014-Aug-27 04:32N 35°37' E 140°05'0 0.0
2014-Aug-27 03:32N 35°37' E 140°05'0 0.0
2014-Aug-27 02:32N 35°37' E 140°05'0 0.0
2014-Aug-27 01:32N 35°37' E 140°05'0 0.0
2014-Aug-27 00:32N 35°37' E 140°05'1 1.2
2014-Aug-26 23:33N 35°35' E 140°06'1 0.7
2014-Aug-26 22:33N 35°36' E 140°06'0 0.0
2014-Aug-26 21:21N 35°36' E 140°06'0 0.0
2014-Aug-26 20:33N 35°36' E 140°06'1312.8
2014-Aug-26 19:33N 35°30' E 139°53'1413.5
2014-Aug-26 18:33N 35°18' E 139°45'1313.3
2014-Aug-26 17:34N 35°05' E 139°41'36311.3
2014-Aug-25 09:24N 34°05' E 132°27'1214.9
2014-Aug-25 08:34N 34°17' E 132°24'7 6.8
2014-Aug-25 07:33N 34°21' E 132°31'2 1.6
2014-Aug-25 06:34N 34°21' E 132°29'0 0.0
2014-Aug-25 05:32N 34°21' E 132°29'0 0.0
2014-Aug-25 04:32N 34°21' E 132°29'0 0.1
2014-Aug-25 03:33N 34°21' E 132°29'6 5.7
2014-Aug-25 02:32N 34°21' E 132°22'0 0.0
2014-Aug-25 01:32N 34°21' E 132°22'7 7.4
2014-Aug-25 00:33N 34°21' E 132°31'0 0.1
2014-Aug-24 23:32N 34°21' E 132°31'0 0.0
2014-Aug-24 22:32N 34°21' E 132°31'0 0.0
2014-Aug-24 21:32N 34°21' E 132°31'0 0.0
2014-Aug-24 20:32N 34°21' E 132°31'0 0.0
2014-Aug-24 19:32N 34°21' E 132°31'0 0.0
2014-Aug-24 18:32N 34°21' E 132°31'0 0.0
2014-Aug-24 17:32N 34°21' E 132°31'0 0.0
2014-Aug-24 16:31N 34°21' E 132°31'0 0.0
2014-Aug-24 15:31N 34°21' E 132°31'0 0.0
2014-Aug-24 14:31N 34°21' E 132°31'0 0.0
2014-Aug-24 13:25N 34°21' E 132°31'0 0.0
2014-Aug-24 12:31N 34°21' E 132°31'0 0.0
2014-Aug-24 11:31N 34°21' E 132°31'0 0.0
2014-Aug-24 10:31N 34°21' E 132°31'0 0.0
2014-Aug-24 09:31N 34°21' E 132°31'0 0.0
2014-Aug-24 08:31N 34°21' E 132°31'0 0.0
2014-Aug-24 07:31N 34°21' E 132°31'0 0.0
2014-Aug-24 06:25N 34°21' E 132°31'0 0.0
2014-Aug-24 05:19N 34°21' E 132°31'0 0.1
2014-Aug-24 04:31N 34°21' E 132°31'0 0.0
2014-Aug-24 03:31N 34°21' E 132°31'0 0.0
2014-Aug-24 02:31N 34°21' E 132°31'0 0.0
2014-Aug-24 01:25N 34°21' E 132°31'0 0.0
2014-Aug-24 00:31N 34°21' E 132°31'0 0.0
2014-Aug-23 23:31N 34°21' E 132°31'0 0.0
2014-Aug-23 22:31N 34°21' E 132°31'0 0.0
2014-Aug-23 21:31N 34°21' E 132°31'0 0.0
2014-Aug-23 19:04N 34°21' E 132°31'33811.4
2014-Aug-22 13:32N 34°49' E 139°20'1616.3
2014-Aug-22 12:33N 34°60' E 139°34'1616.2
2014-Aug-22 11:34N 35°13' E 139°46'1211.9
2014-Aug-22 10:34N 35°24' E 139°43'1716.7
2014-Aug-22 09:33N 35°34' E 140°00'5 5.5
2014-Aug-22 08:33N 35°36' E 140°06'0 0.0
2014-Aug-22 07:29N 35°36' E 140°06'0 0.0
2014-Aug-22 06:29N 35°36' E 140°06'1 1.4
2014-Aug-22 05:32N 35°37' E 140°05'0 0.0
2014-Aug-22 04:26N 35°37' E 140°05'0 0.0
2014-Aug-22 03:32N 35°37' E 140°05'0 0.0
2014-Aug-22 02:26N 35°37' E 140°05'0 0.0
2014-Aug-22 01:32N 35°37' E 140°05'0 0.0
2014-Aug-22 00:14N 35°37' E 140°05'0 0.0
2014-Aug-21 23:32N 35°37' E 140°05'1 1.3
2014-Aug-21 22:33N 35°36' E 140°06'0 0.0
2014-Aug-21 21:31N 35°36' E 140°06'0 0.0
2014-Aug-21 20:32N 35°36' E 140°06'8 8.2
2014-Aug-21 19:33N 35°32' E 139°57'1514.6
2014-Aug-21 18:33N 35°22' E 139°45'1313.3
2014-Aug-21 17:33N 35°08' E 139°46'1918.6
2014-Aug-21 16:33N 34°55' E 139°30'237 9.8
2014-Aug-20 16:24N 34°03' E 134°49'  
Track history (hours):
 
Tides and Currents Weather Stations Pressure Air Temp Water Temp Dewpoint Dewpoint Depression Visibility Wind Speed Wind Dir Waves Ship Positions

Toyo Maru

Last reported at 2014-Aug-30 11:33 UTC. Time now 2014-Aug-30 12:28 UTC.
Position N 35°00' E 139°37'.

Length 125 m; draft 6 m.

Type: Cargo ship. MMSI: 431401953.

Date/timePositionNaut miles runAvg speedWind from/ knotsBaromVisibWave heightAir tempDewpointWater temp
2014-Aug-30 11:33N 35°00' E 139°37'24515.3
2014-Aug-29 19:33N 34°05' E 134°48'12115.1
2014-Aug-29 11:33N 34°13' E 132°22'1010.5
2014-Aug-29 10:33N 34°21' E 132°29'0 0.0
2014-Aug-29 09:32N 34°21' E 132°29'0 0.3
2014-Aug-29 08:33N 34°21' E 132°29'2 1.8
2014-Aug-29 07:33N 34°21' E 132°31'0 0.0
2014-Aug-29 06:33N 34°21' E 132°31'0 0.0
2014-Aug-29 04:12N 34°21' E 132°31'610.1
2014-Aug-29 03:33N 34°19' E 132°23'2 1.9
2014-Aug-29 02:31N 34°21' E 132°22'2 2.0
2014-Aug-29 01:34N 34°20' E 132°24'5 4.7
2014-Aug-29 00:33N 34°21' E 132°29'0 0.0
2014-Aug-28 23:33N 34°21' E 132°29'2 1.7
2014-Aug-28 22:33N 34°21' E 132°31'0 0.0
2014-Aug-28 21:29N 34°21' E 132°31'0 0.0
2014-Aug-28 20:29N 34°21' E 132°31'0 0.0
2014-Aug-28 19:29N 34°21' E 132°31'0 0.0
2014-Aug-28 18:29N 34°21' E 132°31'0 0.0
2014-Aug-28 17:32N 34°21' E 132°31'0 0.0
2014-Aug-28 16:29N 34°21' E 132°31'3 2.8
2014-Aug-28 15:33N 34°20' E 132°28'35112.5
2014-Aug-27 11:34N 34°59' E 139°32'1818.0
2014-Aug-27 10:33N 35°13' E 139°46'1413.5
2014-Aug-27 09:33N 35°26' E 139°46'1817.9
2014-Aug-27 08:34N 35°35' E 140°05'1 0.9
2014-Aug-27 07:33N 35°36' E 140°06'0 0.0
2014-Aug-27 06:24N 35°36' E 140°06'1 1.5
2014-Aug-27 05:32N 35°37' E 140°05'0 0.0
2014-Aug-27 04:32N 35°37' E 140°05'0 0.0
2014-Aug-27 03:32N 35°37' E 140°05'0 0.0
2014-Aug-27 02:32N 35°37' E 140°05'0 0.0
2014-Aug-27 01:32N 35°37' E 140°05'0 0.0
2014-Aug-27 00:32N 35°37' E 140°05'1 1.2
2014-Aug-26 23:33N 35°35' E 140°06'1 0.7
2014-Aug-26 22:33N 35°36' E 140°06'0 0.0
2014-Aug-26 21:21N 35°36' E 140°06'0 0.0
2014-Aug-26 20:33N 35°36' E 140°06'1312.8
2014-Aug-26 19:33N 35°30' E 139°53'1413.5
2014-Aug-26 18:33N 35°18' E 139°45'1313.3
2014-Aug-26 17:34N 35°05' E 139°41'36311.3
2014-Aug-25 09:24N 34°05' E 132°27'1214.9
2014-Aug-25 08:34N 34°17' E 132°24'7 6.8
2014-Aug-25 07:33N 34°21' E 132°31'2 1.6
2014-Aug-25 06:34N 34°21' E 132°29'0 0.0
2014-Aug-25 05:32N 34°21' E 132°29'0 0.0
2014-Aug-25 04:32N 34°21' E 132°29'0 0.1
2014-Aug-25 03:33N 34°21' E 132°29'6 5.7
2014-Aug-25 02:32N 34°21' E 132°22'0 0.0
2014-Aug-25 01:32N 34°21' E 132°22'7 7.4
2014-Aug-25 00:33N 34°21' E 132°31'0 0.1
2014-Aug-24 23:32N 34°21' E 132°31'0 0.0
2014-Aug-24 22:32N 34°21' E 132°31'0 0.0
2014-Aug-24 21:32N 34°21' E 132°31'0 0.0
2014-Aug-24 20:32N 34°21' E 132°31'0 0.0
2014-Aug-24 19:32N 34°21' E 132°31'0 0.0
2014-Aug-24 18:32N 34°21' E 132°31'0 0.0
2014-Aug-24 17:32N 34°21' E 132°31'0 0.0
2014-Aug-24 16:31N 34°21' E 132°31'0 0.0
2014-Aug-24 15:31N 34°21' E 132°31'0 0.0
2014-Aug-24 14:31N 34°21' E 132°31'0 0.0
2014-Aug-24 13:25N 34°21' E 132°31'0 0.0
2014-Aug-24 12:31N 34°21' E 132°31'0 0.0
2014-Aug-24 11:31N 34°21' E 132°31'0 0.0
2014-Aug-24 10:31N 34°21' E 132°31'0 0.0
2014-Aug-24 09:31N 34°21' E 132°31'0 0.0
2014-Aug-24 08:31N 34°21' E 132°31'0 0.0
2014-Aug-24 07:31N 34°21' E 132°31'0 0.0
2014-Aug-24 06:25N 34°21' E 132°31'0 0.0
2014-Aug-24 05:19N 34°21' E 132°31'0 0.1
2014-Aug-24 04:31N 34°21' E 132°31'0 0.0
2014-Aug-24 03:31N 34°21' E 132°31'0 0.0
2014-Aug-24 02:31N 34°21' E 132°31'0 0.0
2014-Aug-24 01:25N 34°21' E 132°31'0 0.0
2014-Aug-24 00:31N 34°21' E 132°31'0 0.0
2014-Aug-23 23:31N 34°21' E 132°31'0 0.0
2014-Aug-23 22:31N 34°21' E 132°31'0 0.0
2014-Aug-23 21:31N 34°21' E 132°31'0 0.0
2014-Aug-23 19:04N 34°21' E 132°31'33811.4
2014-Aug-22 13:32N 34°49' E 139°20'1616.3
2014-Aug-22 12:33N 34°60' E 139°34'1616.2
2014-Aug-22 11:34N 35°13' E 139°46'1211.9
2014-Aug-22 10:34N 35°24' E 139°43'1716.7
2014-Aug-22 09:33N 35°34' E 140°00'5 5.5
2014-Aug-22 08:33N 35°36' E 140°06'0 0.0
2014-Aug-22 07:29N 35°36' E 140°06'0 0.0
2014-Aug-22 06:29N 35°36' E 140°06'1 1.4
2014-Aug-22 05:32N 35°37' E 140°05'0 0.0
2014-Aug-22 04:26N 35°37' E 140°05'0 0.0
2014-Aug-22 03:32N 35°37' E 140°05'0 0.0
2014-Aug-22 02:26N 35°37' E 140°05'0 0.0
2014-Aug-22 01:32N 35°37' E 140°05'0 0.0
2014-Aug-22 00:14N 35°37' E 140°05'0 0.0
2014-Aug-21 23:32N 35°37' E 140°05'1 1.3
2014-Aug-21 22:33N 35°36' E 140°06'0 0.0
2014-Aug-21 21:31N 35°36' E 140°06'0 0.0
2014-Aug-21 20:32N 35°36' E 140°06'8 8.2
2014-Aug-21 19:33N 35°32' E 139°57'1514.6
2014-Aug-21 18:33N 35°22' E 139°45'1313.3
2014-Aug-21 17:33N 35°08' E 139°46'1918.6
2014-Aug-21 16:33N 34°55' E 139°30'237 9.8
2014-Aug-20 16:24N 34°03' E 134°49'  

Dump ship's entire track history